Time;durP1;ratioP1;P1;durP2;ratioP2;P2;SDS_P1;SDS_P2;PMS_P1;PMS_P2;Temp;Humidity;BMP_temperature;BMP_pressure;BME280_temperature;BME280_humidity;BME280_pressure;Samples;Min_cycle;Max_cycle;Signal;HPM_P1;HPM_P2
2022/08/12 00:44:58;;;;;;;6.80;3.13;;;;;;;22.17;62.80;99308.00;5155325;27;20254;-80
2022/08/12 00:47:27;;;;;;;3.58;2.60;;;;;;;22.11;62.25;99306.00;5109859;28;20194;-80
2022/08/12 00:49:58;;;;;;;4.13;3.13;;;;;;;22.31;61.54;99304.63;5103384;28;20219;-79
2022/08/12 00:52:27;;;;;;;5.13;3.10;;;;;;;22.28;61.26;99308.50;5113740;28;20290;-80
2022/08/12 00:54:57;;;;;;;4.15;2.90;;;;;;;22.20;62.74;99311.22;5103633;28;20214;-80
2022/08/12 00:57:28;;;;;;;3.70;3.00;;;;;;;22.34;62.41;99314.25;5109487;28;20293;-80
2022/08/12 00:59:59;;;;;;;4.80;2.97;;;;;;;22.27;62.31;99320.31;5107851;28;20709;-80
2022/08/12 01:02:30;;;;;;;4.47;2.90;;;;;;;22.13;64.14;99315.59;5104534;28;20195;-79
2022/08/12 01:13:41;;;;;;;7.57;3.10;;;;;;;21.70;66.23;99325.59;5116944;27;20282;-79
2022/08/12 01:16:21;;;;;;;8.52;3.00;;;;;;;21.86;65.65;99327.50;5130076;27;20247;-79
2022/08/12 01:18:53;;;;;;;5.60;3.40;;;;;;;21.73;66.34;99324.47;5139153;27;20182;-80
2022/08/12 01:21:44;;;;;;;5.45;3.03;;;;;;;21.53;67.66;99315.81;5133955;27;20198;-80
2022/08/12 01:24:22;;;;;;;5.25;2.90;;;;;;;21.29;68.37;99327.34;5125139;27;20210;-80
2022/08/12 01:27:02;;;;;;;4.20;3.03;;;;;;;21.34;68.39;99318.78;5133468;27;20194;-79
2022/08/12 01:29:42;;;;;;;5.43;2.90;;;;;;;21.43;67.86;99328.59;5133446;27;20226;-80
2022/08/12 01:32:14;;;;;;;3.45;2.58;;;;;;;21.30;69.00;99320.09;5135773;27;20255;-79
2022/08/12 01:34:50;;;;;;;5.13;2.80;;;;;;;21.39;70.09;99317.28;5136515;27;20190;-79
2022/08/12 01:37:22;;;;;;;6.45;3.20;;;;;;;21.21;70.73;99329.13;5131874;27;20217;-80
2022/08/12 01:39:53;;;;;;;4.53;2.90;;;;;;;21.03;71.73;99326.50;5128269;27;20269;-79
2022/08/12 01:42:46;;;;;;;4.75;3.00;;;;;;;21.11;71.27;99322.00;5135153;27;20198;-80
2022/08/12 01:45:21;;;;;;;3.63;2.80;;;;;;;20.92;71.71;99327.63;5083504;27;20205;-80
2022/08/12 01:48:03;;;;;;;3.90;2.92;;;;;;;20.84;71.97;99327.59;5071755;28;20200;-80
2022/08/12 01:50:44;;;;;;;6.80;2.80;;;;;;;20.82;72.01;99318.81;5067062;28;20188;-79
2022/08/12 01:53:15;;;;;;;3.88;2.83;;;;;;;20.78;71.98;99325.53;5062737;28;20231;-80
2022/08/12 01:55:47;;;;;;;4.68;3.00;;;;;;;21.00;70.86;99310.69;5071818;28;20271;-79
2022/08/12 01:58:27;;;;;;;7.33;2.93;;;;;;;20.83;71.57;99310.59;5069349;28;20376;-80
2022/08/12 02:01:03;;;;;;;4.20;2.80;;;;;;;21.26;70.11;99313.31;5066446;28;20224;-80
2022/08/12 02:12:36;;;;;;;5.47;2.80;;;;;;;20.80;72.83;99315.44;5128914;27;20218;-80
2022/08/12 02:15:16;;;;;;;3.60;3.20;;;;;;;20.80;72.97;99302.84;5124627;27;20208;-80
2022/08/12 02:18:08;;;;;;;6.93;2.90;;;;;;;20.76;73.27;99301.47;5130689;27;20186;-80
2022/08/12 02:20:44;;;;;;;4.90;3.08;;;;;;;20.83;73.19;99298.97;5123287;27;20198;-80
2022/08/12 02:23:25;;;;;;;3.83;3.10;;;;;;;20.75;73.53;99310.56;5130434;27;20190;-79
2022/08/12 02:25:58;;;;;;;4.60;3.57;;;;;;;20.65;74.80;99307.09;5138231;27;20196;-80
2022/08/12 02:28:27;;;;;;;4.77;3.20;;;;;;;20.71;74.98;99303.78;5152297;27;20273;-80
2022/08/12 02:31:07;;;;;;;6.53;3.10;;;;;;;20.49;75.94;99305.19;5152575;27;20217;-80
2022/08/12 02:33:37;;;;;;;10.27;3.67;;;;;;;20.47;76.41;99304.50;5150192;27;20209;-79
2022/08/12 02:36:06;;;;;;;11.93;3.70;;;;;;;20.54;75.59;99300.16;5149410;27;20318;-79
2022/08/12 02:38:36;;;;;;;5.10;3.10;;;;;;;20.63;74.65;99300.19;5091581;28;20215;-80
2022/08/12 02:41:09;;;;;;;5.85;3.25;;;;;;;20.74;74.56;99300.78;5091389;28;20263;-80
2022/08/12 02:43:45;;;;;;;6.53;3.30;;;;;;;20.73;74.47;99304.47;5091388;28;20211;-80
2022/08/12 02:46:24;;;;;;;4.10;3.33;;;;;;;20.74;74.88;99299.94;5088530;28;20210;-80
2022/08/12 02:49:00;;;;;;;3.20;2.87;;;;;;;20.75;74.95;99296.22;5087042;28;20199;-80
2022/08/12 02:51:32;;;;;;;6.17;3.17;;;;;;;20.67;74.85;99298.91;5087541;28;20199;-80
2022/08/12 02:54:03;;;;;;;5.07;2.90;;;;;;;20.83;73.64;99298.97;5088621;28;20222;-79
2022/08/12 02:56:39;;;;;;;3.37;2.60;;;;;;;20.75;73.54;99294.41;5109354;27;20209;-79
2022/08/12 02:59:11;;;;;;;4.77;2.90;;;;;;;20.46;75.36;99291.16;5095942;27;20197;-80
2022/08/12 03:01:47;;;;;;;4.57;2.90;;;;;;;20.39;75.49;99296.31;5152984;27;20189;-79
2022/08/12 03:04:25;;;;;;;4.37;2.90;;;;;;;20.37;75.96;99297.50;5148895;27;20207;-80
2022/08/12 03:07:02;;;;;;;5.43;3.17;;;;;;;20.35;75.99;99296.78;5116601;27;20189;-79
2022/08/12 03:09:36;;;;;;;6.17;3.00;;;;;;;20.58;74.42;99293.47;5148496;27;20201;-79
2022/08/12 03:12:28;;;;;;;5.07;2.73;;;;;;;20.41;74.75;99301.53;5154359;27;20193;-79
2022/08/12 03:15:05;;;;;;;4.40;3.00;;;;;;;20.32;75.88;99303.31;5154419;27;20234;-79
2022/08/12 03:17:43;;;;;;;4.33;2.70;;;;;;;20.43;75.73;99302.25;5144830;27;20201;-80
2022/08/12 03:20:39;;;;;;;4.87;2.90;;;;;;;20.39;76.19;99304.41;5153450;27;20201;-80
2022/08/12 03:23:10;;;;;;;4.87;2.80;;;;;;;20.36;75.77;99304.69;5145086;27;20212;-79
2022/08/12 03:25:55;;;;;;;8.07;3.00;;;;;;;20.18;78.67;99306.59;5150186;27;20201;-80
2022/08/12 03:31:12;;;;;;;4.27;2.90;;;;;;;20.10;79.09;99310.06;5154659;27;20225;-79
2022/08/12 03:33:43;;;;;;;4.90;2.93;;;;;;;20.22;77.73;99307.97;5154251;27;20297;-79
2022/08/12 03:36:30;;;;;;;4.73;2.90;;;;;;;20.09;79.80;99313.75;5149134;27;20185;-79
2022/08/12 03:42:01;;;;;;;7.87;3.10;;;;;;;19.94;81.94;99318.81;5131646;27;20549;-79
2022/08/12 04:01:32;;;;;;;6.50;3.17;;;;;;;19.55;85.24;99314.69;5131008;27;20214;-79
2022/08/12 04:04:09;;;;;;;3.63;3.00;;;;;;;19.65;83.90;99320.88;5127886;27;20194;-79
2022/08/12 04:06:44;;;;;;;5.17;3.00;;;;;;;19.73;82.89;99324.50;5130684;27;20317;-79
2022/08/12 04:09:13;;;;;;;4.97;2.97;;;;;;;19.65;82.51;99323.56;5130473;27;20194;-79
2022/08/12 04:14:33;;;;;;;5.20;2.97;;;;;;;19.84;81.96;99320.72;5130813;27;20191;-79
2022/08/12 04:17:02;;;;;;;6.57;2.93;;;;;;;19.78;81.51;99321.34;5129332;27;20269;-79
2022/08/12 04:19:31;;;;;;;4.47;3.00;;;;;;;19.67;82.34;99322.41;5103238;28;20644;-78
2022/08/12 04:22:00;;;;;;;6.60;3.60;;;;;;;19.72;82.62;99325.50;5104794;28;20222;-78
2022/08/12 04:24:33;;;;;;;4.33;2.87;;;;;;;19.46;83.97;99324.50;5108003;28;20191;-78
2022/08/12 04:27:04;;;;;;;5.13;2.70;;;;;;;19.49;84.54;99321.50;5102395;28;20210;-78
2022/08/12 04:29:36;;;;;;;6.13;3.07;;;;;;;19.48;85.26;99322.50;5048966;28;20195;-78
2022/08/12 04:32:24;;;;;;;5.67;3.20;;;;;;;19.39;85.44;99332.31;5107772;28;20403;-79
2022/08/12 04:34:56;;;;;;;7.50;3.20;;;;;;;19.29;86.92;99331.50;5103839;28;20205;-78
2022/08/12 04:37:24;;;;;;;9.90;3.15;;;;;;;19.21;87.66;99327.91;5113357;27;20246;-78
2022/08/12 04:39:54;;;;;;;9.23;2.90;;;;;;;19.47;86.79;99334.25;5129883;27;20222;-79
2022/08/12 04:42:24;;;;;;;4.23;3.27;;;;;;;19.47;85.54;99322.66;5124690;28;20602;-79
2022/08/12 04:44:56;;;;;;;7.00;3.00;;;;;;;19.54;84.90;99331.81;5108887;27;20209;-78
2022/08/12 04:47:25;;;;;;;8.33;3.37;;;;;;;19.57;85.29;99329.69;5130201;27;20246;-79
2022/08/12 04:49:53;;;;;;;8.83;3.23;;;;;;;19.56;85.34;99332.53;5125536;28;20194;-78
2022/08/12 04:52:21;;;;;;;6.73;3.37;;;;;;;19.63;85.43;99334.47;5116683;28;20214;-79
2022/08/12 04:54:49;;;;;;;10.37;3.33;;;;;;;19.40;87.39;99331.34;5113540;28;20266;-79
2022/08/12 04:57:18;;;;;;;6.83;3.50;;;;;;;19.60;86.85;99333.94;5115763;27;20222;-79
2022/08/12 04:59:48;;;;;;;3.60;2.90;;;;;;;19.62;85.71;99331.94;5111084;28;20273;-79
2022/08/12 05:02:20;;;;;;;5.90;3.43;;;;;;;19.80;85.33;99338.19;5116250;27;20210;-79
2022/08/12 05:04:51;;;;;;;7.03;3.50;;;;;;;19.72;86.20;99338.94;5111094;28;20240;-80
2022/08/12 05:07:22;;;;;;;6.27;3.37;;;;;;;19.77;85.93;99335.78;5116088;28;20222;-79
2022/08/12 05:09:52;;;;;;;10.40;3.57;;;;;;;19.89;85.31;99334.56;5115995;27;20214;-79
2022/08/12 05:12:34;;;;;;;12.50;3.60;;;;;;;19.92;84.48;99336.09;5114185;28;20211;-78
2022/08/12 05:15:05;;;;;;;6.70;3.33;;;;;;;19.87;83.76;99339.25;5106742;28;20202;-78
2022/08/12 05:17:57;;;;;;;4.97;2.80;;;;;;;19.94;82.70;99337.63;5115805;28;20191;-79
2022/08/12 05:20:27;;;;;;;9.17;3.07;;;;;;;20.15;81.69;99336.47;5110414;28;20359;-78
2022/08/12 05:23:07;;;;;;;7.07;2.80;;;;;;;20.04;81.43;99345.63;5114282;27;20263;-78
2022/08/12 05:25:41;;;;;;;6.57;3.22;;;;;;;20.21;80.64;99343.94;5115307;27;20194;-79
2022/08/12 05:28:11;;;;;;;5.45;2.95;;;;;;;20.16;80.68;99339.00;5087926;28;20218;-79
2022/08/12 05:30:41;;;;;;;4.30;2.60;;;;;;;20.35;79.37;99346.06;5111588;28;20221;-79
2022/08/12 05:33:14;;;;;;;3.40;2.95;;;;;;;20.32;78.65;99346.38;5115574;27;20207;-79
2022/08/12 05:35:44;;;;;;;7.10;3.07;;;;;;;20.29;79.46;99346.69;5114502;28;20202;-79
2022/08/12 05:41:04;;;;;;;6.63;3.10;;;;;;;20.47;78.22;99344.03;5115451;27;20219;-79
2022/08/12 05:43:33;;;;;;;6.30;3.13;;;;;;;20.64;77.59;99348.50;5113348;28;20205;-79
2022/08/12 05:46:02;;;;;;;5.60;3.00;;;;;;;20.76;76.38;99357.19;5110399;28;20199;-79
2022/08/12 05:48:32;;;;;;;5.43;3.63;;;;;;;20.56;78.42;99346.63;5095247;28;20192;-79
2022/08/12 05:51:00;;;;;;;7.38;3.42;;;;;;;20.69;78.61;99351.56;5091127;28;20188;-79
2022/08/12 05:53:29;;;;;;;5.57;3.17;;;;;;;20.96;76.84;99352.41;5086623;28;20279;-79
2022/08/12 05:55:57;;;;;;;8.85;3.50;;;;;;;20.96;77.03;99349.72;5082877;28;20226;-78
2022/08/12 05:58:27;;;;;;;6.00;3.17;;;;;;;21.04;78.30;99349.78;5091886;28;20196;-79
2022/08/12 06:00:55;;;;;;;3.55;2.95;;;;;;;21.08;78.57;99351.13;5092503;28;20271;-79
2022/08/12 06:03:24;;;;;;;4.35;3.13;;;;;;;21.12;78.30;99353.31;5089438;28;20204;-79
2022/08/12 06:05:55;;;;;;;5.72;3.00;;;;;;;21.33;78.28;99354.81;5084083;28;20225;-79
2022/08/12 06:08:26;;;;;;;6.80;2.97;;;;;;;21.16;77.70;99356.56;5114608;28;20207;-79
2022/08/12 06:10:55;;;;;;;6.75;3.22;;;;;;;21.16;80.07;99356.56;5109635;28;20274;-79
2022/08/12 06:13:24;;;;;;;5.85;2.70;;;;;;;21.42;79.58;99362.78;5115389;27;20313;-79
2022/08/12 06:16:15;;;;;;;5.78;3.22;;;;;;;21.47;79.13;99356.88;5099364;28;20199;-79
2022/08/12 06:18:44;;;;;;;3.53;2.83;;;;;;;21.63;78.06;99374.97;5110390;28;20199;-79
2022/08/12 06:21:15;;;;;;;6.78;3.20;;;;;;;21.70;80.40;99366.06;5111177;28;20222;-79
2022/08/12 06:23:45;;;;;;;8.23;2.78;;;;;;;21.77;80.44;99362.72;5114576;28;20224;-80
2022/08/12 06:26:17;;;;;;;5.30;2.97;;;;;;;21.81;79.75;99362.22;5114739;28;20278;-80
2022/08/12 06:28:49;;;;;;;4.72;3.05;;;;;;;21.96;79.54;99359.72;5087966;28;20195;-79
2022/08/12 06:31:19;;;;;;;5.47;2.63;;;;;;;21.96;79.57;99360.56;5090789;28;20196;-79
2022/08/12 06:33:55;;;;;;;5.57;2.80;;;;;;;22.17;75.27;99360.09;5091539;28;20195;-79
2022/08/12 06:36:46;;;;;;;5.60;2.88;;;;;;;22.39;71.64;99360.44;5092177;28;20230;-80
2022/08/12 06:39:16;;;;;;;3.08;2.60;;;;;;;22.53;70.94;99365.19;5089408;28;20223;-79
2022/08/12 06:44:50;;;;;;;4.80;2.47;;;;;;;23.03;63.63;99354.16;5091932;28;20677;-79
2022/08/12 06:47:20;;;;;;;4.93;2.53;;;;;;;23.27;61.34;99352.41;5106021;28;20314;-79
2022/08/12 06:49:51;;;;;;;4.05;2.92;;;;;;;23.36;60.67;99357.59;5086847;28;20199;-79
2022/08/12 06:52:23;;;;;;;3.83;2.38;;;;;;;23.28;60.58;99363.03;5089057;28;20199;-80
2022/08/12 06:54:54;;;;;;;2.90;2.42;;;;;;;23.51;59.72;99343.34;5089375;28;20210;-79
2022/08/12 06:57:26;;;;;;;5.13;2.60;;;;;;;23.65;58.24;99356.16;5086831;28;20192;-80
2022/08/12 07:00:20;;;;;;;9.00;3.10;;;;;;;23.75;58.05;99361.34;5031554;28;20251;-82
2022/08/12 07:02:56;;;;;;;3.97;2.05;;;;;;;23.90;56.76;99362.25;5026438;28;20271;-79
2022/08/12 07:05:25;;;;;;;4.05;2.10;;;;;;;24.15;54.30;99362.94;5023712;28;20209;-79
2022/08/12 07:08:09;;;;;;;3.80;2.20;;;;;;;24.08;54.57;99356.56;5036477;28;20207;-80
2022/08/12 07:10:42;;;;;;;4.15;2.35;;;;;;;24.04;54.81;99356.09;5043960;28;20384;-80
2022/08/12 07:13:11;;;;;;;2.40;2.20;;;;;;;24.26;54.00;99362.53;5047096;28;20335;-79
2022/08/12 07:15:42;;;;;;;6.00;2.50;;;;;;;24.46;53.55;99358.31;5045780;28;20224;-80
2022/08/12 07:18:18;;;;;;;5.10;2.65;;;;;;;24.56;53.37;99355.34;5078737;28;20213;-80
2022/08/12 07:20:49;;;;;;;5.53;2.30;;;;;;;24.65;53.69;99356.97;5109272;28;20199;-80
2022/08/12 07:23:21;;;;;;;4.13;2.40;;;;;;;24.84;52.78;99353.72;5085574;28;20222;-80
2022/08/12 07:25:50;;;;;;;4.13;2.20;;;;;;;24.73;52.65;99356.06;5086655;28;20199;-79
2022/08/12 07:28:28;;;;;;;2.20;2.00;;;;;;;24.83;52.03;99359.34;5091130;28;20187;-79
2022/08/12 07:30:57;;;;;;;3.22;2.15;;;;;;;24.81;52.75;99355.97;5055686;28;20192;-80
2022/08/12 07:33:28;;;;;;;2.47;2.00;;;;;;;25.10;50.96;99352.47;5091124;28;20242;-80
2022/08/12 07:35:58;;;;;;;2.63;2.15;;;;;;;25.36;49.83;99354.69;5086806;28;20194;-79
2022/08/12 07:38:32;;;;;;;3.80;2.50;;;;;;;25.16;50.46;99354.44;5087205;28;20207;-80
2022/08/12 07:41:05;;;;;;;4.97;1.98;;;;;;;25.26;50.04;99351.44;5088188;28;20247;-81
2022/08/12 07:43:38;;;;;;;4.90;2.30;;;;;;;25.45;50.01;99350.00;5088301;28;20686;-80
2022/08/12 07:46:10;;;;;;;4.43;2.38;;;;;;;25.72;48.22;99343.91;5088449;28;20211;-80
2022/08/12 07:48:41;;;;;;;2.83;2.13;;;;;;;25.81;47.09;99350.91;5117508;27;20221;-80
2022/08/12 07:51:10;;;;;;;3.42;2.10;;;;;;;25.86;47.29;99353.88;5122249;27;20197;-81
2022/08/12 07:53:54;;;;;;;3.08;2.17;;;;;;;25.72;48.65;99357.50;5121071;28;20655;-81
2022/08/12 07:56:31;;;;;;;4.93;2.03;;;;;;;25.82;47.42;99359.91;5113217;28;20198;-80
2022/08/12 07:59:01;;;;;;;3.15;1.80;;;;;;;25.91;47.02;99353.31;5112280;28;20222;-80
2022/08/12 08:01:31;;;;;;;7.65;2.38;;;;;;;26.21;45.84;99356.75;5111923;28;20194;-80
2022/08/12 08:06:48;;;;;;;3.72;1.90;;;;;;;26.45;46.15;99348.25;5113354;28;20276;-79
2022/08/12 08:09:22;;;;;;;2.60;2.20;;;;;;;26.44;46.14;99345.72;5108758;28;20210;-79
2022/08/12 08:14:46;;;;;;;2.35;2.10;;;;;;;26.51;45.92;99333.03;5113527;28;20214;-79
2022/08/12 08:17:17;;;;;;;3.65;2.20;;;;;;;26.76;45.44;99339.72;5113291;28;20215;-79
2022/08/12 08:19:51;;;;;;;2.67;1.90;;;;;;;27.00;43.54;99343.00;5113164;27;20191;-79
2022/08/12 08:22:33;;;;;;;4.53;1.90;;;;;;;27.08;42.48;99332.00;5115049;27;20219;-79
2022/08/12 08:25:12;;;;;;;2.13;1.88;;;;;;;26.97;42.18;99337.97;5114298;28;20225;-79
2022/08/12 08:28:06;;;;;;;3.65;2.20;;;;;;;27.03;42.29;99338.06;5115684;28;20206;-79
2022/08/12 08:30:38;;;;;;;6.32;3.88;;;;;;;26.99;42.65;99341.31;5132674;27;20205;-79
2022/08/12 08:33:11;;;;;;;3.85;2.03;;;;;;;26.50;42.51;99323.19;5132638;27;20226;-80
2022/08/12 08:36:01;;;;;;;2.65;2.40;;;;;;;26.91;42.02;99322.44;5133783;27;20201;-79
2022/08/12 08:38:30;;;;;;;4.47;2.50;;;;;;;27.29;39.43;99320.19;5132214;27;20198;-80
2022/08/12 08:44:13;;;;;;;3.40;1.85;;;;;;;27.19;39.45;99320.56;5134970;27;20218;-79
2022/08/12 08:46:44;;;;;;;2.10;1.90;;;;;;;27.37;39.06;99320.84;5098617;27;20278;-80
2022/08/12 08:49:14;;;;;;;2.88;2.00;;;;;;;27.21;39.39;99310.31;5128649;27;20281;-79
2022/08/12 08:51:43;;;;;;;4.63;3.17;;;;;;;27.28;39.31;99304.91;5135090;27;20220;-80
2022/08/12 08:54:12;;;;;;;4.20;3.25;;;;;;;27.50;39.09;99317.34;5132042;27;20296;-79
2022/08/12 08:56:45;;;;;;;3.03;2.00;;;;;;;27.47;38.71;99308.75;5128694;27;20201;-79
2022/08/12 08:59:14;;;;;;;2.63;1.60;;;;;;;27.71;38.23;99305.53;5130021;27;20193;-79
2022/08/12 09:01:45;;;;;;;6.28;2.03;;;;;;;27.73;37.00;99302.59;5125289;27;20199;-80
2022/08/12 09:04:16;;;;;;;4.07;1.83;;;;;;;27.98;36.78;99306.41;5114553;28;20312;-79
2022/08/12 09:07:04;;;;;;;4.15;2.17;;;;;;;27.75;37.02;99303.22;5116212;28;20350;-79
2022/08/12 09:09:46;;;;;;;3.13;1.90;;;;;;;27.87;36.43;99299.69;5114945;28;20183;-79
2022/08/12 09:15:23;;;;;;;3.20;1.75;;;;;;;28.15;36.12;99315.03;5116109;28;20193;-79
2022/08/12 09:18:12;;;;;;;2.95;1.70;;;;;;;28.04;36.21;99296.59;5116068;28;20207;-79
2022/08/12 09:20:42;;;;;;;1.80;1.70;;;;;;;28.38;35.36;99307.34;5113836;28;20199;-79
2022/08/12 09:23:18;;;;;;;4.70;2.00;;;;;;;28.52;34.68;99308.16;5114518;28;20679;-79
2022/08/12 09:26:08;;;;;;;2.60;1.67;;;;;;;28.41;35.69;99314.25;5117615;28;20244;-79
2022/08/12 09:28:39;;;;;;;2.72;1.70;;;;;;;28.41;35.43;99315.09;5115817;28;20195;-79
2022/08/12 09:31:08;;;;;;;3.88;1.90;;;;;;;28.31;34.94;99300.22;5115647;27;20199;-79
2022/08/12 09:33:58;;;;;;;2.35;1.70;;;;;;;28.51;34.40;99301.03;5115801;28;20265;-79
2022/08/12 09:36:47;;;;;;;3.53;1.90;;;;;;;28.83;33.68;99299.31;5072626;28;20222;-79
2022/08/12 09:39:29;;;;;;;5.05;1.85;;;;;;;29.12;33.31;99300.75;5028272;28;20254;-79
2022/08/12 09:45:27;;;;;;;5.15;1.67;;;;;;;29.03;33.84;99299.31;5021774;28;20212;-79
2022/08/12 09:48:18;;;;;;;4.65;1.70;;;;;;;29.27;32.32;99298.63;5032665;28;20276;-79
2022/08/12 09:50:54;;;;;;;2.83;1.73;;;;;;;29.61;31.63;99291.97;4950566;29;20705;-79
2022/08/12 09:53:28;;;;;;;2.13;1.65;;;;;;;29.51;32.03;99285.31;4937897;28;20208;-79
2022/08/12 09:56:12;;;;;;;3.25;2.00;;;;;;;29.35;31.95;99290.19;5010571;28;20194;-79
2022/08/12 09:59:01;;;;;;;3.22;1.73;;;;;;;29.69;31.15;99281.84;4985871;28;20211;-79
2022/08/12 10:01:33;;;;;;;3.45;1.60;;;;;;;29.27;31.81;99282.22;5012840;28;20532;-79
2022/08/12 10:04:22;;;;;;;3.92;1.80;;;;;;;29.92;31.02;99282.16;4971888;28;20230;-79
2022/08/12 10:06:52;;;;;;;3.25;1.50;;;;;;;29.83;30.89;99278.84;5012580;28;20202;-79
2022/08/12 10:09:24;;;;;;;4.57;1.80;;;;;;;29.84;30.72;99253.19;5012515;28;20206;-79
2022/08/12 10:15:00;;;;;;;1.83;1.55;;;;;;;30.07;30.38;99276.38;5032326;28;20212;-79
2022/08/12 10:17:34;;;;;;;5.03;1.60;;;;;;;29.69;31.21;99266.31;5071454;28;20241;-80
2022/08/12 10:20:25;;;;;;;3.05;1.80;;;;;;;29.71;31.40;99263.34;5072580;28;20223;-79
2022/08/12 10:23:00;;;;;;;3.08;1.70;;;;;;;29.81;31.21;99258.25;5069354;28;20234;-79
2022/08/12 10:31:29;;;;;;;4.25;1.60;;;;;;;30.87;29.73;99247.25;5076381;28;20200;-79
2022/08/12 10:34:21;;;;;;;2.13;1.80;;;;;;;30.98;29.33;99243.81;5072769;28;20571;-80
2022/08/12 10:36:57;;;;;;;3.75;1.63;;;;;;;31.01;29.46;99242.50;5073863;28;20185;-79
2022/08/12 10:39:46;;;;;;;2.72;1.70;;;;;;;30.87;29.07;99236.31;5078443;28;20215;-80
2022/08/12 10:45:30;;;;;;;4.22;2.10;;;;;;;30.84;29.34;99231.31;5116798;27;20195;-79
2022/08/12 10:48:05;;;;;;;2.83;1.75;;;;;;;31.11;29.28;99223.63;5113095;28;20272;-80
2022/08/12 10:50:56;;;;;;;5.47;1.77;;;;;;;31.29;29.43;99226.38;5112296;28;20198;-79
2022/08/12 10:53:31;;;;;;;3.00;1.75;;;;;;;31.84;29.39;99226.22;5112622;28;20232;-80
2022/08/12 10:56:14;;;;;;;1.95;1.75;;;;;;;31.25;29.61;99225.16;5113779;28;20197;-80
2022/08/12 10:58:43;;;;;;;3.50;1.85;;;;;;;31.49;29.46;99226.09;5108511;28;20201;-79
2022/08/12 11:01:17;;;;;;;3.88;2.00;;;;;;;31.34;30.16;99212.00;5113608;27;20287;-79
2022/08/12 11:04:06;;;;;;;2.58;1.85;;;;;;;31.26;30.20;99215.88;5112907;28;20215;-80
2022/08/12 11:06:58;;;;;;;5.22;1.90;;;;;;;31.26;30.46;99220.50;5114165;28;20652;-80
2022/08/12 11:09:47;;;;;;;3.40;1.70;;;;;;;31.55;29.80;99225.16;5114026;28;20277;-80
2022/08/12 11:12:29;;;;;;;4.10;1.75;;;;;;;31.87;29.13;99203.88;5112831;28;20202;-80
2022/08/12 11:15:19;;;;;;;3.53;1.90;;;;;;;32.01;28.63;99209.13;5114057;28;20235;-80
2022/08/12 11:18:08;;;;;;;5.28;1.52;;;;;;;31.76;28.50;99195.63;5114026;28;20195;-80
2022/08/12 11:20:46;;;;;;;3.05;1.60;;;;;;;31.70;28.33;99182.81;5109395;28;20240;-80
2022/08/12 11:23:17;;;;;;;3.70;2.10;;;;;;;31.96;28.72;99192.56;5113451;27;20206;-80
2022/08/12 11:26:04;;;;;;;4.07;1.60;;;;;;;32.45;27.24;99186.66;5114143;27;20643;-80
2022/08/12 11:28:35;;;;;;;2.17;1.63;;;;;;;32.18;27.39;99193.66;5110397;28;20198;-80
2022/08/12 11:31:09;;;;;;;3.05;1.60;;;;;;;32.56;27.43;99181.38;5113200;27;20198;-80
2022/08/12 11:33:43;;;;;;;3.67;1.52;;;;;;;32.37;27.28;99180.69;5067772;28;20192;-79
2022/08/12 11:36:32;;;;;;;3.78;1.73;;;;;;;32.15;27.55;99183.16;5071020;28;20204;-80
2022/08/12 11:39:09;;;;;;;4.55;1.65;;;;;;;31.76;27.38;99184.66;5063323;28;20686;-80
2022/08/12 11:41:39;;;;;;;4.57;1.80;;;;;;;32.26;27.24;99182.34;5064165;28;20269;-80
2022/08/12 11:44:12;;;;;;;4.78;1.73;;;;;;;32.64;27.27;99172.78;5065436;28;20730;-80
2022/08/12 11:47:01;;;;;;;4.35;1.75;;;;;;;33.02;27.23;99159.38;5043219;28;20706;-80
2022/08/12 11:49:36;;;;;;;3.55;1.75;;;;;;;33.01;27.32;99176.91;5069406;28;20247;-80
2022/08/12 11:52:05;;;;;;;1.77;1.60;;;;;;;32.57;27.73;99161.94;5092916;28;20280;-80
2022/08/12 11:54:55;;;;;;;3.88;1.70;;;;;;;32.94;28.04;99158.91;5113436;28;20256;-80
2022/08/12 11:57:24;;;;;;;4.28;1.80;;;;;;;33.17;27.18;99158.81;5113331;28;20246;-80
2022/08/12 12:00:14;;;;;;;2.97;1.98;;;;;;;33.49;27.04;99163.81;5113961;28;20294;-80
2022/08/12 12:03:02;;;;;;;5.07;2.00;;;;;;;33.48;27.38;99157.50;5116171;28;20252;-80
2022/08/12 12:05:33;;;;;;;2.22;1.70;;;;;;;33.03;27.17;99151.97;5113419;28;20250;-80
2022/08/12 12:08:09;;;;;;;3.33;1.65;;;;;;;33.53;26.83;99156.78;5120651;28;20201;-80
2022/08/12 12:11:01;;;;;;;1.98;1.65;;;;;;;33.64;26.20;99149.53;5117373;28;20198;-80
2022/08/12 12:13:36;;;;;;;2.65;1.80;;;;;;;33.28;26.67;99144.19;5115485;28;20193;-80
2022/08/12 12:16:24;;;;;;;3.25;1.80;;;;;;;33.75;26.48;99129.38;5117190;28;20256;-80
2022/08/12 12:18:53;;;;;;;4.95;1.92;;;;;;;33.79;26.22;99125.91;5112851;28;20202;-80
2022/08/12 12:21:22;;;;;;;3.13;2.05;;;;;;;33.41;27.02;99145.84;5116012;28;20290;-80
2022/08/12 12:24:11;;;;;;;3.47;1.75;;;;;;;32.32;27.83;99143.00;5117210;28;20272;-81
2022/08/12 12:26:40;;;;;;;2.85;1.60;;;;;;;33.40;26.62;99138.69;5116680;27;20195;-80
2022/08/12 12:29:10;;;;;;;4.63;1.60;;;;;;;33.49;27.22;99119.88;5116728;27;20210;-80
2022/08/12 12:31:59;;;;;;;3.15;1.67;;;;;;;33.78;26.56;99128.88;5117033;28;20267;-81
2022/08/12 12:34:39;;;;;;;5.57;1.85;;;;;;;33.36;27.08;99129.28;5116518;27;20214;-81
2022/08/12 12:37:28;;;;;;;1.88;1.63;;;;;;;34.02;26.50;99127.66;5117094;28;20203;-81
2022/08/12 12:40:16;;;;;;;2.63;1.92;;;;;;;33.96;26.72;99120.41;5116775;27;20266;-81
2022/08/12 12:42:46;;;;;;;3.35;1.70;;;;;;;34.06;26.09;99120.56;5117169;28;20203;-80
2022/08/12 12:45:25;;;;;;;4.10;1.75;;;;;;;34.12;25.39;99113.22;5115402;28;20239;-80
2022/08/12 12:47:57;;;;;;;3.15;1.55;;;;;;;33.99;25.72;99099.84;5108193;28;20202;-80
2022/08/12 12:50:27;;;;;;;3.83;1.52;;;;;;;33.39;26.30;99108.69;5115281;28;20245;-80
2022/08/12 12:53:03;;;;;;;2.10;1.38;;;;;;;33.70;26.25;99102.66;5114810;28;20199;-80
2022/08/12 12:55:34;;;;;;;2.42;1.70;;;;;;;33.49;26.52;99098.75;5116455;28;20198;-81
2022/08/12 12:58:10;;;;;;;2.35;1.48;;;;;;;33.94;25.79;99103.34;5116691;28;20262;-80
2022/08/12 13:00:41;;;;;;;4.53;1.45;;;;;;;34.29;25.34;99089.28;5112256;28;20194;-81
2022/08/12 13:03:20;;;;;;;2.03;1.30;;;;;;;34.62;25.51;99095.78;5117560;28;20182;-80
2022/08/12 13:05:49;;;;;;;2.05;1.30;;;;;;;33.88;25.66;99087.03;5091493;28;20212;-80
2022/08/12 13:08:23;;;;;;;2.78;1.33;;;;;;;33.77;25.78;99100.56;5095393;28;20192;-80
2022/08/12 13:11:04;;;;;;;1.90;1.20;;;;;;;34.45;25.39;99095.84;5092441;28;20273;-80
2022/08/12 13:13:36;;;;;;;3.15;1.48;;;;;;;34.56;24.89;99091.31;5092630;28;20192;-80
2022/08/12 13:16:29;;;;;;;3.80;1.50;;;;;;;34.78;24.83;99086.63;5097769;28;20199;-80
2022/08/12 13:18:58;;;;;;;2.22;1.27;;;;;;;34.96;24.44;99088.25;5094659;28;20212;-80
2022/08/12 13:21:29;;;;;;;1.58;1.33;;;;;;;34.60;24.72;99084.19;5093454;28;20192;-80
2022/08/12 13:24:04;;;;;;;2.85;1.27;;;;;;;34.41;24.36;99076.25;5108192;28;20199;-80
2022/08/12 13:26:38;;;;;;;4.18;1.30;;;;;;;34.57;24.69;99084.72;5097489;28;20215;-80
2022/08/12 13:29:11;;;;;;;5.30;1.30;;;;;;;34.52;24.72;99081.91;5113540;28;20198;-80
2022/08/12 13:31:42;;;;;;;2.38;1.20;;;;;;;34.94;23.94;99079.41;5118790;28;20649;-80
2022/08/12 13:34:31;;;;;;;3.80;1.35;;;;;;;34.11;24.67;99084.06;5118879;28;20194;-80
2022/08/12 13:37:04;;;;;;;3.05;1.60;;;;;;;34.62;24.89;99082.03;5101616;27;20683;-80
2022/08/12 13:39:37;;;;;;;3.00;1.42;;;;;;;34.90;24.43;99070.00;5117629;28;20261;-80
2022/08/12 13:42:08;;;;;;;4.72;1.30;;;;;;;35.71;24.10;99072.69;5095703;28;20214;-80
2022/08/12 13:44:43;;;;;;;3.78;1.50;;;;;;;35.27;23.83;99059.91;5119702;28;20187;-81
2022/08/12 13:47:13;;;;;;;2.65;1.10;;;;;;;35.53;23.96;99068.44;5089303;28;20195;-80
2022/08/12 13:49:49;;;;;;;3.20;1.17;;;;;;;36.05;23.54;99062.19;5089707;28;20214;-80
2022/08/12 13:52:24;;;;;;;1.17;1.08;;;;;;;35.33;23.75;99065.47;5032727;28;20189;-80
2022/08/12 13:54:53;;;;;;;1.75;1.33;;;;;;;34.94;23.93;99060.97;5029973;28;20205;-80
2022/08/12 13:57:25;;;;;;;2.20;1.30;;;;;;;35.23;24.12;99069.78;5030628;28;20236;-80
2022/08/12 13:59:56;;;;;;;2.78;1.20;;;;;;;35.26;23.99;99066.50;5022700;28;20647;-81
2022/08/12 14:02:28;;;;;;;1.20;1.10;;;;;;;35.52;23.85;99062.09;5032467;28;20193;-79
2022/08/12 14:04:57;;;;;;;2.90;1.30;;;;;;;36.39;22.96;99049.72;5005526;28;20272;-80
2022/08/12 14:07:26;;;;;;;1.90;1.20;;;;;;;36.04;23.39;99060.53;5049756;28;20197;-80
2022/08/12 14:12:45;;;;;;;3.00;1.67;;;;;;;35.23;24.15;99058.78;5052817;28;20668;-81
2022/08/12 14:15:24;;;;;;;3.25;1.38;;;;;;;34.98;24.52;99053.84;5048070;28;20197;-81